sensor_id;sensor_type;location;lat;lon;timestamp;pressure;altitude;pressure_sealevel;temperature;humidity
10940;BME280;5522;42.696;23.494;2023-03-03T00:01:10;53859.84;;;-139.68;100.00
10940;BME280;5522;42.696;23.494;2023-03-03T00:03:37;53865.88;;;-139.68;100.00
10940;BME280;5522;42.696;23.494;2023-03-03T00:06:05;53855.81;;;-139.68;100.00
10940;BME280;5522;42.696;23.494;2023-03-03T00:08:36;53851.81;;;-139.68;100.00
10940;BME280;5522;42.696;23.494;2023-03-03T00:11:03;53851.81;;;-139.68;100.00
10940;BME280;5522;42.696;23.494;2023-03-03T00:13:32;53851.81;;;-139.68;100.00
10940;BME280;5522;42.696;23.494;2023-03-03T00:16:12;53865.88;;;-139.68;100.00
10940;BME280;5522;42.696;23.494;2023-03-03T00:18:42;53839.75;;;-139.68;100.00
10940;BME280;5522;42.696;23.494;2023-03-03T00:21:26;53833.72;;;-139.68;100.00
10940;BME280;5522;42.696;23.494;2023-03-03T00:24:01;53867.88;;;-139.68;100.00
10940;BME280;5522;42.696;23.494;2023-03-03T00:26:38;53875.94;;;-139.68;100.00
10940;BME280;5522;42.696;23.494;2023-03-03T00:29:33;53843.75;;;-139.68;100.00
10940;BME280;5522;42.696;23.494;2023-03-03T00:32:17;53851.81;;;-139.68;100.00
10940;BME280;5522;42.696;23.494;2023-03-03T00:34:47;53853.81;;;-139.68;100.00
10940;BME280;5522;42.696;23.494;2023-03-03T00:37:29;53839.75;;;-139.68;100.00
10940;BME280;5522;42.696;23.494;2023-03-03T00:40:10;53855.81;;;-139.68;100.00
10940;BME280;5522;42.696;23.494;2023-03-03T00:42:39;53851.81;;;-139.68;100.00
10940;BME280;5522;42.696;23.494;2023-03-03T00:45:21;53851.81;;;-139.68;100.00
10940;BME280;5522;42.696;23.494;2023-03-03T00:47:49;53849.78;;;-139.68;100.00
10940;BME280;5522;42.696;23.494;2023-03-03T00:50:28;53839.75;;;-139.68;100.00
10940;BME280;5522;42.696;23.494;2023-03-03T00:53:04;53867.88;;;-139.68;100.00
10940;BME280;5522;42.696;23.494;2023-03-03T00:55:33;53869.91;;;-139.68;100.00
10940;BME280;5522;42.696;23.494;2023-03-03T00:58:00;53851.81;;;-139.68;100.00
10940;BME280;5522;42.696;23.494;2023-03-03T01:05:43;53845.78;;;-139.68;100.00
10940;BME280;5522;42.696;23.494;2023-03-03T01:08:10;53861.84;;;-139.68;100.00
10940;BME280;5522;42.696;23.494;2023-03-03T01:10:42;53837.72;;;-139.68;100.00
10940;BME280;5522;42.696;23.494;2023-03-03T01:13:11;53835.72;;;-139.68;100.00
10940;BME280;5522;42.696;23.494;2023-03-03T01:15:39;53859.84;;;-139.68;100.00
10940;BME280;5522;42.696;23.494;2023-03-03T01:18:07;53839.75;;;-139.68;100.00
10940;BME280;5522;42.696;23.494;2023-03-03T01:23:03;53865.88;;;-139.68;100.00
10940;BME280;5522;42.696;23.494;2023-03-03T01:25:30;53843.75;;;-139.68;100.00
10940;BME280;5522;42.696;23.494;2023-03-03T01:27:58;53839.75;;;-139.68;100.00
10940;BME280;5522;42.696;23.494;2023-03-03T01:30:26;53853.81;;;-139.68;100.00
10940;BME280;5522;42.696;23.494;2023-03-03T01:32:53;53831.69;;;-139.68;100.00
10940;BME280;5522;42.696;23.494;2023-03-03T01:35:20;53863.88;;;-139.68;100.00
10940;BME280;5522;42.696;23.494;2023-03-03T01:37:47;53867.88;;;-139.68;100.00
10940;BME280;5522;42.696;23.494;2023-03-03T01:40:16;53863.88;;;-139.68;100.00
10940;BME280;5522;42.696;23.494;2023-03-03T01:42:43;53845.78;;;-139.68;100.00
10940;BME280;5522;42.696;23.494;2023-03-03T01:45:15;53837.72;;;-139.68;100.00
10940;BME280;5522;42.696;23.494;2023-03-03T01:47:46;53817.63;;;-139.68;100.00
10940;BME280;5522;42.696;23.494;2023-03-03T01:50:20;53871.91;;;-139.68;100.00
10940;BME280;5522;42.696;23.494;2023-03-03T01:52:54;53843.75;;;-139.68;100.00
10940;BME280;5522;42.696;23.494;2023-03-03T01:55:25;53851.81;;;-139.68;100.00
10940;BME280;5522;42.696;23.494;2023-03-03T01:57:58;53879.94;;;-139.68;100.00
10940;BME280;5522;42.696;23.494;2023-03-03T02:00:28;53851.81;;;-139.68;100.00
10940;BME280;5522;42.696;23.494;2023-03-03T02:02:57;53841.75;;;-139.68;100.00
10940;BME280;5522;42.696;23.494;2023-03-03T02:05:24;53819.63;;;-139.68;100.00
10940;BME280;5522;42.696;23.494;2023-03-03T02:07:51;53825.66;;;-139.68;100.00
10940;BME280;5522;42.696;23.494;2023-03-03T02:10:20;53825.66;;;-139.68;100.00
10940;BME280;5522;42.696;23.494;2023-03-03T02:12:49;53847.78;;;-139.68;100.00
10940;BME280;5522;42.696;23.494;2023-03-03T02:15:19;53857.84;;;-139.68;100.00
10940;BME280;5522;42.696;23.494;2023-03-03T02:17:54;53879.94;;;-139.68;100.00
10940;BME280;5522;42.696;23.494;2023-03-03T02:20:34;53847.78;;;-139.68;100.00
10940;BME280;5522;42.696;23.494;2023-03-03T02:23:05;53845.78;;;-139.68;100.00
10940;BME280;5522;42.696;23.494;2023-03-03T02:25:36;53831.69;;;-139.68;100.00
10940;BME280;5522;42.696;23.494;2023-03-03T02:28:08;53849.78;;;-139.68;100.00
10940;BME280;5522;42.696;23.494;2023-03-03T02:30:37;53851.81;;;-139.68;100.00
10940;BME280;5522;42.696;23.494;2023-03-03T02:33:05;53827.69;;;-139.68;100.00
10940;BME280;5522;42.696;23.494;2023-03-03T02:35:34;53849.78;;;-139.68;100.00
10940;BME280;5522;42.696;23.494;2023-03-03T02:38:10;53829.69;;;-139.68;100.00
10940;BME280;5522;42.696;23.494;2023-03-03T02:40:44;53859.84;;;-139.68;100.00
10940;BME280;5522;42.696;23.494;2023-03-03T02:43:19;53835.72;;;-139.68;100.00
10940;BME280;5522;42.696;23.494;2023-03-03T02:45:48;53851.81;;;-139.68;100.00
10940;BME280;5522;42.696;23.494;2023-03-03T02:48:15;53841.75;;;-139.68;100.00
10940;BME280;5522;42.696;23.494;2023-03-03T02:50:41;53839.75;;;-139.68;100.00
10940;BME280;5522;42.696;23.494;2023-03-03T02:53:08;53839.75;;;-139.68;100.00
10940;BME280;5522;42.696;23.494;2023-03-03T02:55:35;53823.66;;;-139.68;100.00
10940;BME280;5522;42.696;23.494;2023-03-03T02:58:02;53871.91;;;-139.68;100.00
10940;BME280;5522;42.696;23.494;2023-03-03T03:00:30;53863.88;;;-139.68;100.00
10940;BME280;5522;42.696;23.494;2023-03-03T03:02:57;53853.81;;;-139.68;100.00
10940;BME280;5522;42.696;23.494;2023-03-03T03:05:24;53867.88;;;-139.68;100.00
10940;BME280;5522;42.696;23.494;2023-03-03T03:07:51;53823.66;;;-139.68;100.00
10940;BME280;5522;42.696;23.494;2023-03-03T03:10:18;53841.75;;;-139.68;100.00
10940;BME280;5522;42.696;23.494;2023-03-03T03:12:45;53843.75;;;-139.68;100.00
10940;BME280;5522;42.696;23.494;2023-03-03T03:15:11;53821.66;;;-139.68;100.00
10940;BME280;5522;42.696;23.494;2023-03-03T03:17:40;53833.72;;;-139.68;100.00
10940;BME280;5522;42.696;23.494;2023-03-03T03:20:09;53885.97;;;-139.68;100.00
10940;BME280;5522;42.696;23.494;2023-03-03T03:22:35;53863.88;;;-139.68;100.00
10940;BME280;5522;42.696;23.494;2023-03-03T03:25:02;53851.81;;;-139.68;100.00
10940;BME280;5522;42.696;23.494;2023-03-03T03:27:29;53839.75;;;-139.68;100.00
10940;BME280;5522;42.696;23.494;2023-03-03T03:29:56;53827.69;;;-139.68;100.00
10940;BME280;5522;42.696;23.494;2023-03-03T03:32:23;53843.75;;;-139.68;100.00
10940;BME280;5522;42.696;23.494;2023-03-03T03:34:51;53871.91;;;-139.68;100.00
10940;BME280;5522;42.696;23.494;2023-03-03T03:37:18;53811.59;;;-139.68;100.00
10940;BME280;5522;42.696;23.494;2023-03-03T03:39:45;53861.84;;;-139.68;100.00
10940;BME280;5522;42.696;23.494;2023-03-03T03:42:12;53843.75;;;-139.68;100.00
10940;BME280;5522;42.696;23.494;2023-03-03T03:44:38;53835.72;;;-139.68;100.00
10940;BME280;5522;42.696;23.494;2023-03-03T03:47:05;53839.75;;;-139.68;100.00
10940;BME280;5522;42.696;23.494;2023-03-03T03:49:32;53823.66;;;-139.68;100.00
10940;BME280;5522;42.696;23.494;2023-03-03T03:52:00;53888.00;;;-139.68;100.00
10940;BME280;5522;42.696;23.494;2023-03-03T03:54:27;53853.81;;;-139.68;100.00
10940;BME280;5522;42.696;23.494;2023-03-03T03:56:54;53843.75;;;-139.68;100.00
10940;BME280;5522;42.696;23.494;2023-03-03T03:59:21;53857.84;;;-139.68;100.00
10940;BME280;5522;42.696;23.494;2023-03-03T04:01:48;53845.78;;;-139.68;100.00
10940;BME280;5522;42.696;23.494;2023-03-03T04:04:15;53837.72;;;-139.68;100.00
10940;BME280;5522;42.696;23.494;2023-03-03T04:06:42;53835.72;;;-139.68;100.00
10940;BME280;5522;42.696;23.494;2023-03-03T04:09:11;53847.78;;;-139.68;100.00
10940;BME280;5522;42.696;23.494;2023-03-03T04:11:38;53877.94;;;-139.68;100.00
10940;BME280;5522;42.696;23.494;2023-03-03T04:14:04;53857.84;;;-139.68;100.00
10940;BME280;5522;42.696;23.494;2023-03-03T04:16:31;53843.75;;;-139.68;100.00
10940;BME280;5522;42.696;23.494;2023-03-03T04:18:58;53863.88;;;-139.68;100.00
10940;BME280;5522;42.696;23.494;2023-03-03T04:21:25;53883.97;;;-139.68;100.00
10940;BME280;5522;42.696;23.494;2023-03-03T04:23:53;53867.88;;;-139.68;100.00
10940;BME280;5522;42.696;23.494;2023-03-03T04:26:21;53841.75;;;-139.68;100.00
10940;BME280;5522;42.696;23.494;2023-03-03T04:28:48;53883.97;;;-139.68;100.00
10940;BME280;5522;42.696;23.494;2023-03-03T04:31:14;53843.75;;;-139.68;100.00
10940;BME280;5522;42.696;23.494;2023-03-03T04:33:41;53867.88;;;-139.68;100.00
10940;BME280;5522;42.696;23.494;2023-03-03T04:36:08;53849.78;;;-139.68;100.00
10940;BME280;5522;42.696;23.494;2023-03-03T04:38:35;53859.84;;;-139.68;100.00
10940;BME280;5522;42.696;23.494;2023-03-03T04:41:02;53859.84;;;-139.68;100.00
10940;BME280;5522;42.696;23.494;2023-03-03T04:43:30;53867.88;;;-139.68;100.00
10940;BME280;5522;42.696;23.494;2023-03-03T04:45:57;53839.75;;;-139.68;100.00
10940;BME280;5522;42.696;23.494;2023-03-03T04:48:24;53851.81;;;-139.68;100.00
10940;BME280;5522;42.696;23.494;2023-03-03T04:50:51;53871.91;;;-139.68;100.00
10940;BME280;5522;42.696;23.494;2023-03-03T04:53:17;53851.81;;;-139.68;100.00
10940;BME280;5522;42.696;23.494;2023-03-03T04:55:44;53853.81;;;-139.68;100.00
10940;BME280;5522;42.696;23.494;2023-03-03T04:58:11;53865.88;;;-139.68;100.00
10940;BME280;5522;42.696;23.494;2023-03-03T05:00:40;53849.78;;;-139.68;100.00
10940;BME280;5522;42.696;23.494;2023-03-03T05:03:07;53853.81;;;-139.68;100.00
10940;BME280;5522;42.696;23.494;2023-03-03T05:05:35;53843.75;;;-139.68;100.00
10940;BME280;5522;42.696;23.494;2023-03-03T05:08:01;53815.63;;;-139.68;100.00
10940;BME280;5522;42.696;23.494;2023-03-03T05:10:28;53815.63;;;-139.68;100.00
10940;BME280;5522;42.696;23.494;2023-03-03T05:12:55;53827.69;;;-139.68;100.00
10940;BME280;5522;42.696;23.494;2023-03-03T05:15:22;53841.75;;;-139.68;100.00
10940;BME280;5522;42.696;23.494;2023-03-03T05:17:50;53855.81;;;-139.68;100.00
10940;BME280;5522;42.696;23.494;2023-03-03T05:20:18;53863.88;;;-139.68;100.00
10940;BME280;5522;42.696;23.494;2023-03-03T05:22:45;53825.66;;;-139.68;100.00
10940;BME280;5522;42.696;23.494;2023-03-03T05:25:11;53890.00;;;-139.68;100.00
10940;BME280;5522;42.696;23.494;2023-03-03T05:27:38;53855.81;;;-139.68;100.00
10940;BME280;5522;42.696;23.494;2023-03-03T05:30:06;53823.66;;;-139.68;100.00
10940;BME280;5522;42.696;23.494;2023-03-03T05:32:33;53843.75;;;-139.68;100.00
10940;BME280;5522;42.696;23.494;2023-03-03T05:35:02;53855.81;;;-139.68;100.00
10940;BME280;5522;42.696;23.494;2023-03-03T05:37:29;53853.81;;;-139.68;100.00
10940;BME280;5522;42.696;23.494;2023-03-03T05:39:56;53863.88;;;-139.68;100.00
10940;BME280;5522;42.696;23.494;2023-03-03T05:42:22;53835.72;;;-139.68;100.00
10940;BME280;5522;42.696;23.494;2023-03-03T05:44:49;53861.84;;;-139.68;100.00
10940;BME280;5522;42.696;23.494;2023-03-03T05:47:16;53847.78;;;-139.68;100.00
10940;BME280;5522;42.696;23.494;2023-03-03T05:49:43;53827.69;;;-139.68;100.00
10940;BME280;5522;42.696;23.494;2023-03-03T05:52:11;53859.84;;;-139.68;100.00
10940;BME280;5522;42.696;23.494;2023-03-03T05:54:38;53849.78;;;-139.68;100.00
10940;BME280;5522;42.696;23.494;2023-03-03T05:57:05;53849.78;;;-139.68;100.00
10940;BME280;5522;42.696;23.494;2023-03-03T05:59:32;53873.91;;;-139.68;100.00
10940;BME280;5522;42.696;23.494;2023-03-03T06:01:59;53871.91;;;-139.68;100.00
10940;BME280;5522;42.696;23.494;2023-03-03T06:04:26;53865.88;;;-139.68;100.00
10940;BME280;5522;42.696;23.494;2023-03-03T06:06:52;53811.59;;;-139.68;100.00
10940;BME280;5522;42.696;23.494;2023-03-03T06:09:21;53823.66;;;-139.68;100.00
10940;BME280;5522;42.696;23.494;2023-03-03T06:11:47;53851.81;;;-139.68;100.00
10940;BME280;5522;42.696;23.494;2023-03-03T06:14:17;53853.81;;;-139.68;100.00
10940;BME280;5522;42.696;23.494;2023-03-03T06:16:45;53881.97;;;-139.68;100.00
10940;BME280;5522;42.696;23.494;2023-03-03T06:19:12;53883.97;;;-139.68;100.00
10940;BME280;5522;42.696;23.494;2023-03-03T06:21:39;53857.84;;;-139.68;100.00
10940;BME280;5522;42.696;23.494;2023-03-03T06:24:06;53839.75;;;-139.68;100.00
10940;BME280;5522;42.696;23.494;2023-03-03T06:26:35;53833.72;;;-139.68;100.00
10940;BME280;5522;42.696;23.494;2023-03-03T06:29:02;53843.75;;;-139.68;100.00
10940;BME280;5522;42.696;23.494;2023-03-03T06:31:29;53879.94;;;-139.68;100.00
10940;BME280;5522;42.696;23.494;2023-03-03T06:33:55;53908.09;;;-139.68;100.00
10940;BME280;5522;42.696;23.494;2023-03-03T06:36:23;53859.84;;;-139.68;100.00
10940;BME280;5522;42.696;23.494;2023-03-03T06:38:51;53851.81;;;-139.68;100.00
10940;BME280;5522;42.696;23.494;2023-03-03T06:41:18;53863.88;;;-139.68;100.00
10940;BME280;5522;42.696;23.494;2023-03-03T06:43:46;53871.91;;;-139.68;100.00
10940;BME280;5522;42.696;23.494;2023-03-03T06:46:13;53877.94;;;-139.68;100.00
10940;BME280;5522;42.696;23.494;2023-03-03T06:48:40;53885.97;;;-139.68;100.00
10940;BME280;5522;42.696;23.494;2023-03-03T06:51:19;53807.56;;;-139.68;100.00
10940;BME280;5522;42.696;23.494;2023-03-03T06:53:47;53881.97;;;-139.68;100.00
10940;BME280;5522;42.696;23.494;2023-03-03T06:56:16;53839.75;;;-139.68;100.00
10940;BME280;5522;42.696;23.494;2023-03-03T06:58:43;53851.81;;;-139.68;100.00
10940;BME280;5522;42.696;23.494;2023-03-03T07:01:15;53853.81;;;-139.68;100.00
10940;BME280;5522;42.696;23.494;2023-03-03T07:03:42;53851.81;;;-139.68;100.00
10940;BME280;5522;42.696;23.494;2023-03-03T07:06:17;53861.84;;;-139.68;100.00
10940;BME280;5522;42.696;23.494;2023-03-03T07:08:46;53839.75;;;-139.68;100.00
10940;BME280;5522;42.696;23.494;2023-03-03T07:11:16;53843.75;;;-139.68;100.00
10940;BME280;5522;42.696;23.494;2023-03-03T07:13:45;53843.75;;;-139.68;100.00
10940;BME280;5522;42.696;23.494;2023-03-03T07:16:15;53883.97;;;-139.68;100.00
10940;BME280;5522;42.696;23.494;2023-03-03T07:18:47;53839.75;;;-139.68;100.00
10940;BME280;5522;42.696;23.494;2023-03-03T07:21:18;53807.56;;;-139.68;100.00
10940;BME280;5522;42.696;23.494;2023-03-03T07:23:47;53888.00;;;-139.68;100.00
10940;BME280;5522;42.696;23.494;2023-03-03T07:26:17;53867.88;;;-139.68;100.00
10940;BME280;5522;42.696;23.494;2023-03-03T07:28:51;53857.84;;;-139.68;100.00
10940;BME280;5522;42.696;23.494;2023-03-03T07:31:38;53855.81;;;-139.68;100.00
10940;BME280;5522;42.696;23.494;2023-03-03T07:34:16;53857.84;;;-139.68;100.00
10940;BME280;5522;42.696;23.494;2023-03-03T07:36:45;53803.56;;;-139.68;100.00
10940;BME280;5522;42.696;23.494;2023-03-03T07:39:24;53863.88;;;-139.68;100.00
10940;BME280;5522;42.696;23.494;2023-03-03T07:41:51;53885.97;;;-139.68;100.00
10940;BME280;5522;42.696;23.494;2023-03-03T07:44:21;53839.75;;;-139.68;100.00
10940;BME280;5522;42.696;23.494;2023-03-03T07:46:51;53853.81;;;-139.68;100.00
10940;BME280;5522;42.696;23.494;2023-03-03T07:49:23;53849.78;;;-139.68;100.00
10940;BME280;5522;42.696;23.494;2023-03-03T07:51:54;53843.75;;;-139.68;100.00
10940;BME280;5522;42.696;23.494;2023-03-03T07:54:30;53871.91;;;-139.68;100.00
10940;BME280;5522;42.696;23.494;2023-03-03T07:57:10;53869.91;;;-139.68;100.00
10940;BME280;5522;42.696;23.494;2023-03-03T07:59:42;53831.69;;;-139.68;100.00
10940;BME280;5522;42.696;23.494;2023-03-03T08:02:29;53871.91;;;-139.68;100.00
10940;BME280;5522;42.696;23.494;2023-03-03T08:04:59;53873.91;;;-139.68;100.00
10940;BME280;5522;42.696;23.494;2023-03-03T08:07:25;53904.06;;;-139.68;100.00
10940;BME280;5522;42.696;23.494;2023-03-03T08:09:58;53863.88;;;-139.68;100.00
10940;BME280;5522;42.696;23.494;2023-03-03T08:12:37;53853.81;;;-139.68;100.00
10940;BME280;5522;42.696;23.494;2023-03-03T08:15:15;53829.69;;;-139.68;100.00
10940;BME280;5522;42.696;23.494;2023-03-03T08:17:45;53863.88;;;-139.68;100.00
10940;BME280;5522;42.696;23.494;2023-03-03T08:20:43;53859.84;;;-139.68;100.00
10940;BME280;5522;42.696;23.494;2023-03-03T08:23:11;53857.84;;;-139.68;100.00
10940;BME280;5522;42.696;23.494;2023-03-03T08:25:38;53819.63;;;-139.68;100.00
10940;BME280;5522;42.696;23.494;2023-03-03T08:28:07;53845.78;;;-139.68;100.00
10940;BME280;5522;42.696;23.494;2023-03-03T08:30:33;53853.81;;;-139.68;100.00
10940;BME280;5522;42.696;23.494;2023-03-03T08:33:02;53896.03;;;-139.68;100.00
10940;BME280;5522;42.696;23.494;2023-03-03T08:35:29;53867.88;;;-139.68;100.00
10940;BME280;5522;42.696;23.494;2023-03-03T08:37:56;53859.84;;;-139.68;100.00
10940;BME280;5522;42.696;23.494;2023-03-03T08:40:23;53871.91;;;-139.68;100.00
10940;BME280;5522;42.696;23.494;2023-03-03T08:42:50;53888.00;;;-139.68;100.00
10940;BME280;5522;42.696;23.494;2023-03-03T08:45:16;53843.75;;;-139.68;100.00
10940;BME280;5522;42.696;23.494;2023-03-03T08:47:43;53904.06;;;-139.68;100.00
10940;BME280;5522;42.696;23.494;2023-03-03T08:50:12;53883.97;;;-139.68;100.00
10940;BME280;5522;42.696;23.494;2023-03-03T08:52:39;53853.81;;;-139.68;100.00
10940;BME280;5522;42.696;23.494;2023-03-03T08:55:06;53888.00;;;-139.68;100.00
10940;BME280;5522;42.696;23.494;2023-03-03T08:57:33;53875.94;;;-139.68;100.00
10940;BME280;5522;42.696;23.494;2023-03-03T09:00:00;53883.97;;;-139.68;100.00
10940;BME280;5522;42.696;23.494;2023-03-03T09:02:27;53853.81;;;-139.68;100.00
10940;BME280;5522;42.696;23.494;2023-03-03T09:04:54;53926.19;;;-139.68;100.00
10940;BME280;5522;42.696;23.494;2023-03-03T09:07:22;53869.91;;;-139.68;100.00
10940;BME280;5522;42.696;23.494;2023-03-03T09:09:49;53859.84;;;-139.68;100.00
10940;BME280;5522;42.696;23.494;2023-03-03T09:12:26;53885.97;;;-139.68;100.00
10940;BME280;5522;42.696;23.494;2023-03-03T09:14:55;53900.06;;;-139.68;100.00
10940;BME280;5522;42.696;23.494;2023-03-03T09:17:27;53875.94;;;-139.68;100.00
10940;BME280;5522;42.696;23.494;2023-03-03T09:19:57;53861.84;;;-139.68;100.00
10940;BME280;5522;42.696;23.494;2023-03-03T09:22:27;53877.94;;;-139.68;100.00
10940;BME280;5522;42.696;23.494;2023-03-03T09:24:56;53920.16;;;-139.68;100.00
10940;BME280;5522;42.696;23.494;2023-03-03T09:27:27;53908.09;;;-139.68;100.00
10940;BME280;5522;42.696;23.494;2023-03-03T09:29:55;53881.97;;;-139.68;100.00
10940;BME280;5522;42.696;23.494;2023-03-03T09:32:30;53857.84;;;-139.68;100.00
10940;BME280;5522;42.696;23.494;2023-03-03T09:34:59;53871.91;;;-139.68;100.00
10940;BME280;5522;42.696;23.494;2023-03-03T09:37:29;53914.13;;;-139.68;100.00
10940;BME280;5522;42.696;23.494;2023-03-03T09:39:59;53873.91;;;-139.68;100.00
10940;BME280;5522;42.696;23.494;2023-03-03T09:42:52;53900.06;;;-139.68;100.00
10940;BME280;5522;42.696;23.494;2023-03-03T09:48:21;53883.97;;;-139.68;100.00
10940;BME280;5522;42.696;23.494;2023-03-03T09:50:57;53875.94;;;-139.68;100.00
10940;BME280;5522;42.696;23.494;2023-03-03T09:53:41;53922.16;;;-139.68;100.00
10940;BME280;5522;42.696;23.494;2023-03-03T09:56:17;53906.06;;;-139.68;100.00
10940;BME280;5522;42.696;23.494;2023-03-03T09:59:03;53867.88;;;-139.68;100.00
10940;BME280;5522;42.696;23.494;2023-03-03T10:01:45;53900.06;;;-139.68;100.00
10940;BME280;5522;42.696;23.494;2023-03-03T10:04:33;53918.16;;;-139.68;100.00
10940;BME280;5522;42.696;23.494;2023-03-03T10:07:16;53932.22;;;-139.68;100.00
10940;BME280;5522;42.696;23.494;2023-03-03T10:10:02;53948.31;;;-139.68;100.00
10940;BME280;5522;42.696;23.494;2023-03-03T10:12:34;53904.06;;;-139.68;100.00
10940;BME280;5522;42.696;23.494;2023-03-03T10:15:17;53926.19;;;-139.68;100.00
10940;BME280;5522;42.696;23.494;2023-03-03T10:17:49;53934.22;;;-139.68;100.00
10940;BME280;5522;42.696;23.494;2023-03-03T10:20:27;53904.06;;;-139.68;100.00
10940;BME280;5522;42.696;23.494;2023-03-03T10:23:05;53914.13;;;-139.68;100.00
10940;BME280;5522;42.696;23.494;2023-03-03T10:25:40;53863.88;;;-139.68;98.64
10940;BME280;5522;42.696;23.494;2023-03-03T10:28:32;53916.13;;;-139.68;98.41
10940;BME280;5522;42.696;23.494;2023-03-03T10:31:11;53928.19;;;-139.68;98.45
10940;BME280;5522;42.696;23.494;2023-03-03T10:33:48;53906.06;;;-139.68;93.60
10940;BME280;5522;42.696;23.494;2023-03-03T10:36:35;53916.13;;;-139.68;92.61
10940;BME280;5522;42.696;23.494;2023-03-03T10:39:20;53916.13;;;-139.68;94.72
10940;BME280;5522;42.696;23.494;2023-03-03T10:42:02;53944.28;;;-139.68;88.33
10940;BME280;5522;42.696;23.494;2023-03-03T10:44:59;53924.16;;;-139.68;85.10
10940;BME280;5522;42.696;23.494;2023-03-03T10:47:46;53954.31;;;-139.68;84.99
10940;BME280;5522;42.696;23.494;2023-03-03T10:50:20;53966.38;;;-139.68;80.53
10940;BME280;5522;42.696;23.494;2023-03-03T10:52:54;53932.22;;;-139.68;80.35
10940;BME280;5522;42.696;23.494;2023-03-03T10:55:35;53926.19;;;-139.68;80.45
10940;BME280;5522;42.696;23.494;2023-03-03T11:01:20;53980.47;;;-139.68;76.17
10940;BME280;5522;42.696;23.494;2023-03-03T11:04:22;53968.41;;;-139.68;80.89
10940;BME280;5522;42.696;23.494;2023-03-03T11:06:55;53952.31;;;-139.68;86.80
10940;BME280;5522;42.696;23.494;2023-03-03T11:12:25;53946.28;;;-139.68;86.75
10940;BME280;5522;42.696;23.494;2023-03-03T11:15:07;53952.31;;;-139.68;87.15
10940;BME280;5522;42.696;23.494;2023-03-03T11:17:53;53902.06;;;-139.68;87.42
10940;BME280;5522;42.696;23.494;2023-03-03T11:20:32;53948.31;;;-139.68;85.81
10940;BME280;5522;42.696;23.494;2023-03-03T11:23:09;53938.25;;;-139.68;85.80
10940;BME280;5522;42.696;23.494;2023-03-03T11:25:45;53946.28;;;-139.68;89.09
10940;BME280;5522;42.696;23.494;2023-03-03T11:28:25;53922.16;;;-139.68;90.84
10940;BME280;5522;42.696;23.494;2023-03-03T11:31:02;53956.34;;;-139.68;86.91
10940;BME280;5522;42.696;23.494;2023-03-03T11:33:39;53910.09;;;-139.68;87.39
10940;BME280;5522;42.696;23.494;2023-03-03T11:36:12;53952.31;;;-139.68;91.65
10940;BME280;5522;42.696;23.494;2023-03-03T11:38:51;53934.22;;;-139.68;87.66
10940;BME280;5522;42.696;23.494;2023-03-03T11:41:32;53948.31;;;-139.68;91.66
10940;BME280;5522;42.696;23.494;2023-03-03T11:44:17;53964.38;;;-139.68;92.85
10940;BME280;5522;42.696;23.494;2023-03-03T11:46:50;53942.25;;;-139.68;94.83
10940;BME280;5522;42.696;23.494;2023-03-03T11:49:24;53940.25;;;-139.68;98.89
10940;BME280;5522;42.696;23.494;2023-03-03T11:52:02;53920.16;;;-139.68;100.00
10940;BME280;5522;42.696;23.494;2023-03-03T11:54:44;53962.38;;;-139.68;100.00
10940;BME280;5522;42.696;23.494;2023-03-03T11:57:18;53952.31;;;-139.68;100.00
10940;BME280;5522;42.696;23.494;2023-03-03T11:59:57;53962.38;;;-139.68;100.00
10940;BME280;5522;42.696;23.494;2023-03-03T12:02:51;53932.22;;;-139.68;100.00
10940;BME280;5522;42.696;23.494;2023-03-03T12:05:38;53932.22;;;-139.68;100.00
10940;BME280;5522;42.696;23.494;2023-03-03T12:08:20;53968.41;;;-139.68;100.00
10940;BME280;5522;42.696;23.494;2023-03-03T12:10:52;53940.25;;;-139.68;100.00
10940;BME280;5522;42.696;23.494;2023-03-03T12:13:29;53924.16;;;-139.68;100.00
10940;BME280;5522;42.696;23.494;2023-03-03T12:16:07;53908.09;;;-139.68;100.00
10940;BME280;5522;42.696;23.494;2023-03-03T12:18:49;53940.25;;;-139.68;100.00
10940;BME280;5522;42.696;23.494;2023-03-03T12:21:29;53932.22;;;-139.68;100.00
10940;BME280;5522;42.696;23.494;2023-03-03T12:24:11;53936.22;;;-139.68;100.00
10940;BME280;5522;42.696;23.494;2023-03-03T12:26:45;53908.09;;;-139.68;100.00
10940;BME280;5522;42.696;23.494;2023-03-03T12:29:24;53920.16;;;-139.68;100.00
10940;BME280;5522;42.696;23.494;2023-03-03T12:32:00;53942.25;;;-139.68;100.00
10940;BME280;5522;42.696;23.494;2023-03-03T12:34:34;53988.50;;;-139.68;100.00
10940;BME280;5522;42.696;23.494;2023-03-03T12:37:27;53994.53;;;-139.68;100.00
10940;BME280;5522;42.696;23.494;2023-03-03T12:40:04;53926.19;;;-139.68;100.00
10940;BME280;5522;42.696;23.494;2023-03-03T12:42:43;53946.28;;;-139.68;100.00
10940;BME280;5522;42.696;23.494;2023-03-03T12:45:30;53948.31;;;-139.68;100.00
10940;BME280;5522;42.696;23.494;2023-03-03T12:48:07;53902.06;;;-139.68;100.00
10940;BME280;5522;42.696;23.494;2023-03-03T12:50:41;53960.38;;;-139.68;100.00
10940;BME280;5522;42.696;23.494;2023-03-03T12:53:23;53952.31;;;-139.68;100.00
10940;BME280;5522;42.696;23.494;2023-03-03T12:55:55;53960.38;;;-139.68;100.00
10940;BME280;5522;42.696;23.494;2023-03-03T12:58:36;53926.19;;;-139.68;100.00
10940;BME280;5522;42.696;23.494;2023-03-03T13:01:14;53932.22;;;-139.68;100.00
10940;BME280;5522;42.696;23.494;2023-03-03T13:03:48;53948.31;;;-139.68;100.00
10940;BME280;5522;42.696;23.494;2023-03-03T13:06:24;53938.25;;;-139.68;100.00
10940;BME280;5522;42.696;23.494;2023-03-03T13:09:01;53950.31;;;-139.68;100.00
10940;BME280;5522;42.696;23.494;2023-03-03T13:11:45;53924.16;;;-139.68;100.00